Time;durP1;ratioP1;P1;durP2;ratioP2;P2;SDS_P1;SDS_P2;PMS_P1;PMS_P2;Temp;Humidity;BMP_temperature;BMP_pressure;BME280_temperature;BME280_humidity;BME280_pressure;Samples;Min_cycle;Max_cycle;Signal;HPM_P1;HPM_P2
2021/04/09 00:02:09;;;;;;;8.40;6.97;;;3.50;94.10;;;;;;5103940;27;20220;-49
2021/04/09 00:04:35;;;;;;;12.23;7.72;;;3.00;93.90;;;;;;5108217;27;20194;-49
2021/04/09 00:07:00;;;;;;;8.70;7.30;;;3.60;94.30;;;;;;5102581;27;20183;-49
2021/04/09 00:09:26;;;;;;;8.70;7.13;;;3.40;94.30;;;;;;5106179;27;20460;-49
2021/04/09 00:11:54;;;;;;;7.37;6.47;;;3.50;94.40;;;;;;5111086;27;20229;-49
2021/04/09 00:14:19;;;;;;;7.60;6.90;;;3.70;94.50;;;;;;5108659;28;20640;-49
2021/04/09 00:16:45;;;;;;;8.80;7.30;;;3.40;94.60;;;;;;5101111;27;20211;-51
2021/04/09 00:19:17;;;;;;;8.37;6.60;;;3.40;94.90;;;;;;5110826;27;20501;-51
2021/04/09 00:21:43;;;;;;;7.60;6.80;;;3.20;94.90;;;;;;5105254;27;20215;-51
2021/04/09 00:24:10;;;;;;;8.93;7.38;;;3.50;95.20;;;;;;5102807;27;20552;-51
2021/04/09 00:26:36;;;;;;;9.55;7.25;;;3.10;95.30;;;;;;5102442;27;20179;-50
2021/04/09 00:29:02;;;;;;;12.68;8.50;;;3.40;95.90;;;;;;5101841;27;20759;-51
2021/04/09 00:31:28;;;;;;;7.95;6.57;;;3.20;95.70;;;;;;5109165;27;20191;-51
2021/04/09 00:33:54;;;;;;;9.50;7.80;;;3.30;95.90;;;;;;5102992;27;20187;-51
2021/04/09 00:36:19;;;;;;;10.90;7.77;;;3.30;95.90;;;;;;5107149;27;20238;-49
2021/04/09 00:38:45;;;;;;;11.77;7.70;;;3.20;95.90;;;;;;5105544;28;20546;-51
2021/04/09 00:41:13;;;;;;;10.95;7.85;;;3.10;95.80;;;;;;5104341;27;20189;-49
2021/04/09 00:43:39;;;;;;;8.38;6.78;;;3.10;96.00;;;;;;5128892;27;20210;-50
2021/04/09 00:46:05;;;;;;;8.90;8.02;;;3.00;95.90;;;;;;5107883;27;20188;-48
2021/04/09 00:48:31;;;;;;;9.13;7.93;;;3.00;95.90;;;;;;5102990;27;20186;-51
2021/04/09 00:50:56;;;;;;;8.73;7.63;;;3.20;95.80;;;;;;5101390;28;20679;-49
2021/04/09 00:53:22;;;;;;;8.37;7.23;;;3.20;96.10;;;;;;5101922;27;20236;-50
2021/04/09 00:55:48;;;;;;;7.77;7.00;;;2.90;95.80;;;;;;5106620;27;20218;-49
2021/04/09 00:58:14;;;;;;;8.97;6.87;;;3.10;96.00;;;;;;5110759;27;20558;-51
2021/04/09 01:00:40;;;;;;;8.65;7.07;;;2.90;96.10;;;;;;5100514;28;20286;-50
2021/04/09 01:03:06;;;;;;;10.20;7.07;;;2.40;95.80;;;;;;5110944;28;20270;-51
2021/04/09 01:05:32;;;;;;;10.10;7.47;;;3.00;96.00;;;;;;5100343;28;20218;-49
2021/04/09 01:08:03;;;;;;;8.10;6.93;;;3.00;96.20;;;;;;5100640;28;20675;-51
2021/04/09 01:10:29;;;;;;;7.70;6.28;;;3.10;96.30;;;;;;5106113;28;20207;-51
2021/04/09 01:12:54;;;;;;;8.68;7.05;;;2.90;96.20;;;;;;5102970;28;20554;-49
2021/04/09 01:15:21;;;;;;;8.30;6.47;;;2.90;96.30;;;;;;5106481;28;20189;-50
2021/04/09 01:17:51;;;;;;;7.00;6.30;;;3.00;96.40;;;;;;5107449;28;20217;-49
2021/04/09 01:20:28;;;;;;;12.35;6.93;;;2.80;96.30;;;;;;5098668;28;20199;-51
2021/04/09 01:22:56;;;;;;;8.85;6.15;;;2.90;96.20;;;;;;5103628;28;20454;-51
2021/04/09 01:25:37;;;;;;;10.45;7.10;;;3.00;96.40;;;;;;5098487;28;20733;-50
2021/04/09 01:28:55;;;;;;;8.65;6.18;;;2.90;96.40;;;;;;5102095;28;20244;-51
2021/04/09 01:31:42;;;;;;;7.95;6.28;;;3.10;96.80;;;;;;5040067;28;20194;-51
2021/04/09 01:34:10;;;;;;;7.65;6.60;;;2.80;96.50;;;;;;5111006;28;20179;-49
2021/04/09 01:36:46;;;;;;;7.43;5.68;;;3.10;96.70;;;;;;5104502;28;20301;-51
2021/04/09 01:39:18;;;;;;;9.00;6.57;;;2.90;96.50;;;;;;5100547;28;20199;-51
2021/04/09 01:41:44;;;;;;;8.02;6.25;;;2.80;96.30;;;;;;5102988;28;20179;-49
2021/04/09 01:44:11;;;;;;;7.97;6.47;;;2.90;96.50;;;;;;5107265;28;20187;-51
2021/04/09 01:46:41;;;;;;;6.55;5.78;;;2.90;96.70;;;;;;5107628;28;20464;-51
2021/04/09 01:49:09;;;;;;;9.68;7.07;;;2.60;96.70;;;;;;5106038;28;20214;-51
2021/04/09 01:51:36;;;;;;;9.57;6.63;;;3.00;96.80;;;;;;5106070;27;20235;-51
2021/04/09 01:54:03;;;;;;;8.80;5.95;;;2.80;96.70;;;;;;5106659;27;20191;-49
2021/04/09 01:56:29;;;;;;;7.28;6.20;;;2.70;96.50;;;;;;5126026;27;20295;-51
2021/04/09 01:58:55;;;;;;;7.22;6.00;;;2.90;97.00;;;;;;5106276;28;20200;-51
2021/04/09 02:01:21;;;;;;;7.88;6.35;;;2.80;96.80;;;;;;5110517;28;20203;-51
2021/04/09 02:03:51;;;;;;;7.15;5.70;;;2.80;96.70;;;;;;5107739;27;20179;-50
2021/04/09 02:06:18;;;;;;;10.30;6.70;;;2.80;97.10;;;;;;5111663;27;20994;-49
2021/04/09 02:08:44;;;;;;;7.35;5.82;;;2.60;97.10;;;;;;5105590;27;20270;-51
2021/04/09 02:11:10;;;;;;;7.55;5.88;;;2.60;97.10;;;;;;5105987;27;20183;-51
2021/04/09 02:13:38;;;;;;;7.05;6.25;;;2.70;97.10;;;;;;5107419;28;20188;-49
2021/04/09 02:16:04;;;;;;;7.45;6.32;;;2.80;97.00;;;;;;5105541;28;20218;-51
2021/04/09 02:18:30;;;;;;;7.18;5.85;;;2.50;97.10;;;;;;5112398;27;20179;-51
2021/04/09 02:20:58;;;;;;;6.45;5.10;;;2.80;97.00;;;;;;5103777;27;20183;-51
2021/04/09 02:23:23;;;;;;;6.22;5.28;;;2.90;97.00;;;;;;5104970;27;20184;-51
2021/04/09 02:25:49;;;;;;;9.07;5.87;;;2.60;97.10;;;;;;5100344;27;20183;-51
2021/04/09 02:28:15;;;;;;;10.10;6.40;;;2.80;97.20;;;;;;5113990;27;20658;-48
2021/04/09 02:30:42;;;;;;;5.88;5.28;;;2.70;97.20;;;;;;5115013;27;20253;-51
2021/04/09 02:33:11;;;;;;;7.45;6.40;;;2.70;97.20;;;;;;5107290;28;20176;-51
2021/04/09 02:35:36;;;;;;;6.25;5.65;;;2.80;97.10;;;;;;5102215;28;20581;-49
2021/04/09 02:38:02;;;;;;;7.70;5.90;;;2.70;97.10;;;;;;5104426;27;20175;-50
2021/04/09 02:40:33;;;;;;;7.80;5.50;;;2.50;96.90;;;;;;5111003;27;20668;-50
2021/04/09 02:42:59;;;;;;;6.47;5.60;;;2.60;96.60;;;;;;5131802;27;20470;-50
2021/04/09 02:45:25;;;;;;;9.30;5.57;;;2.70;96.80;;;;;;5110153;28;20198;-50
2021/04/09 02:47:55;;;;;;;6.22;5.57;;;2.80;96.80;;;;;;5114416;27;20183;-49
2021/04/09 02:50:35;;;;;;;6.60;5.90;;;2.70;96.80;;;;;;5112449;27;20229;-50
2021/04/09 02:53:13;;;;;;;5.85;5.25;;;3.00;96.90;;;;;;5105064;27;20186;-50
2021/04/09 02:55:45;;;;;;;8.75;6.50;;;2.90;96.80;;;;;;5101750;28;20427;-50
2021/04/09 02:58:13;;;;;;;6.90;5.00;;;2.60;96.70;;;;;;5102018;28;20262;-50
2021/04/09 03:00:43;;;;;;;8.30;5.45;;;2.90;96.70;;;;;;5103763;28;20609;-50
2021/04/09 03:03:10;;;;;;;6.63;5.03;;;2.80;96.50;;;;;;5103212;27;20729;-49
2021/04/09 03:05:36;;;;;;;8.82;5.72;;;3.00;96.60;;;;;;5106561;28;20222;-50
2021/04/09 03:08:03;;;;;;;5.45;4.85;;;2.90;96.40;;;;;;5129966;27;20181;-50
2021/04/09 03:10:28;;;;;;;5.78;5.10;;;3.10;96.30;;;;;;5104886;27;20241;-50
2021/04/09 03:12:54;;;;;;;6.50;4.83;;;2.80;96.00;;;;;;5112233;27;20647;-50
2021/04/09 03:15:36;;;;;;;7.07;4.80;;;3.00;96.20;;;;;;5110679;27;20207;-50
2021/04/09 03:18:09;;;;;;;6.13;4.60;;;3.10;96.20;;;;;;5104199;28;20433;-50
2021/04/09 03:20:35;;;;;;;8.55;5.00;;;3.00;96.10;;;;;;5121014;27;20250;-50
2021/04/09 03:23:01;;;;;;;6.40;4.77;;;2.90;95.90;;;;;;5107680;27;20672;-50
2021/04/09 03:25:26;;;;;;;6.22;4.70;;;3.10;95.60;;;;;;5111544;27;20437;-50
2021/04/09 03:27:52;;;;;;;4.93;4.50;;;3.00;95.80;;;;;;5109055;27;20270;-50
2021/04/09 03:30:20;;;;;;;7.40;5.43;;;2.90;95.50;;;;;;5110587;27;20226;-49
2021/04/09 03:32:47;;;;;;;7.05;5.20;;;3.20;95.90;;;;;;5106477;27;20460;-50
2021/04/09 03:35:13;;;;;;;8.13;4.75;;;3.10;95.40;;;;;;5103253;27;20187;-50
2021/04/09 03:37:39;;;;;;;5.93;4.60;;;3.00;95.50;;;;;;5108745;28;20320;-50
2021/04/09 03:40:05;;;;;;;5.20;4.70;;;3.10;95.60;;;;;;5103665;27;20242;-50
2021/04/09 03:42:31;;;;;;;6.03;4.80;;;3.30;95.50;;;;;;5104436;27;20247;-50
2021/04/09 03:44:57;;;;;;;6.73;4.63;;;3.10;95.30;;;;;;5112279;27;20695;-50
2021/04/09 03:47:22;;;;;;;8.10;4.97;;;3.20;95.20;;;;;;5101558;27;20183;-50
2021/04/09 03:49:48;;;;;;;5.00;4.50;;;3.40;94.80;;;;;;5108981;28;20208;-50
2021/04/09 03:52:14;;;;;;;6.13;4.63;;;3.00;94.60;;;;;;5109056;27;20187;-50
2021/04/09 03:54:39;;;;;;;5.83;4.63;;;3.40;94.70;;;;;;5108368;28;20183;-50
2021/04/09 03:57:05;;;;;;;6.33;4.77;;;3.10;94.60;;;;;;5100467;28;20218;-50
2021/04/09 03:59:34;;;;;;;9.27;4.70;;;3.30;94.80;;;;;;5107350;27;20222;-50
2021/04/09 04:02:00;;;;;;;8.82;5.20;;;3.10;94.50;;;;;;5112091;27;20440;-50
2021/04/09 04:04:26;;;;;;;6.57;4.35;;;3.00;94.40;;;;;;5098902;27;20270;-50
2021/04/09 04:06:52;;;;;;;7.80;4.60;;;3.50;94.90;;;;;;5102433;28;20301;-50
2021/04/09 04:09:17;;;;;;;6.23;5.00;;;3.00;94.50;;;;;;5099364;28;20687;-50
2021/04/09 04:11:44;;;;;;;6.87;5.07;;;3.40;94.90;;;;;;5103190;27;20441;-50
2021/04/09 04:14:09;;;;;;;7.57;5.15;;;3.40;94.90;;;;;;5107183;28;20194;-50
2021/04/09 04:16:35;;;;;;;8.03;5.30;;;3.40;94.90;;;;;;5109298;27;20206;-50
2021/04/09 04:19:01;;;;;;;11.53;5.43;;;3.10;94.80;;;;;;5110669;27;20203;-50
2021/04/09 04:21:26;;;;;;;8.80;5.07;;;3.50;95.00;;;;;;5113536;27;20568;-50
2021/04/09 04:23:52;;;;;;;5.70;5.07;;;3.40;94.90;;;;;;5098146;27;20183;-50
2021/04/09 04:26:18;;;;;;;7.17;5.57;;;3.10;94.80;;;;;;5103288;27;20667;-49
2021/04/09 04:28:44;;;;;;;6.27;5.10;;;3.40;95.10;;;;;;5108581;27;20191;-50
2021/04/09 04:31:10;;;;;;;5.70;4.90;;;3.10;94.80;;;;;;5101649;27;20178;-50
2021/04/09 04:33:36;;;;;;;6.57;5.00;;;3.10;95.10;;;;;;5106796;27;20186;-50
2021/04/09 04:36:03;;;;;;;7.70;4.75;;;3.30;95.10;;;;;;5107012;27;20450;-51
2021/04/09 04:38:28;;;;;;;6.15;5.30;;;3.30;95.10;;;;;;5101486;27;20664;-51
2021/04/09 04:40:55;;;;;;;6.30;5.70;;;3.40;95.10;;;;;;5102952;27;20187;-51
2021/04/09 04:43:20;;;;;;;5.25;4.75;;;3.20;95.00;;;;;;5098768;28;20180;-51
2021/04/09 04:45:47;;;;;;;7.97;4.93;;;3.20;94.70;;;;;;5102133;27;20176;-51
2021/04/09 04:48:13;;;;;;;7.88;6.18;;;3.30;94.70;;;;;;5107093;27;20179;-51
2021/04/09 04:50:40;;;;;;;8.17;5.97;;;3.50;95.00;;;;;;5117774;27;20569;-50
2021/04/09 04:53:06;;;;;;;6.88;5.20;;;3.20;94.50;;;;;;5101378;27;20953;-51
2021/04/09 04:55:32;;;;;;;5.90;5.10;;;3.10;94.70;;;;;;5105024;27;20516;-51
2021/04/09 04:57:58;;;;;;;10.93;5.78;;;3.20;95.00;;;;;;5107174;28;20183;-51
2021/04/09 05:00:24;;;;;;;6.47;5.03;;;3.20;95.10;;;;;;5095817;27;20211;-51
2021/04/09 05:02:50;;;;;;;7.80;6.20;;;3.20;95.10;;;;;;5106929;28;20206;-51
2021/04/09 05:05:15;;;;;;;6.30;5.27;;;3.30;95.20;;;;;;5101337;28;20234;-51
2021/04/09 05:07:41;;;;;;;6.77;5.63;;;3.30;95.00;;;;;;5102024;28;20283;-51
2021/04/09 05:10:07;;;;;;;6.70;5.37;;;2.80;94.90;;;;;;5096222;28;20211;-50
2021/04/09 05:12:33;;;;;;;7.05;4.80;;;3.60;95.40;;;;;;5098120;28;20190;-50
2021/04/09 05:14:59;;;;;;;10.07;6.45;;;3.50;94.90;;;;;;5102698;28;20210;-51
2021/04/09 05:17:24;;;;;;;9.20;6.07;;;3.60;94.60;;;;;;5110719;28;20256;-51
2021/04/09 05:19:50;;;;;;;8.50;6.40;;;3.60;94.70;;;;;;5101661;28;20226;-50
2021/04/09 05:22:16;;;;;;;7.93;5.57;;;3.60;94.10;;;;;;5097797;28;20207;-50
2021/04/09 05:24:41;;;;;;;7.20;6.43;;;3.60;94.30;;;;;;5102656;27;20299;-51
2021/04/09 05:27:07;;;;;;;11.27;6.40;;;3.60;94.20;;;;;;5098659;27;20187;-51
2021/04/09 05:29:37;;;;;;;10.50;5.97;;;3.70;93.70;;;;;;5111293;27;20293;-51
2021/04/09 05:32:08;;;;;;;7.22;5.45;;;4.10;94.00;;;;;;5121582;27;20957;-51
2021/04/09 05:34:37;;;;;;;6.35;5.68;;;4.20;93.60;;;;;;5106077;27;20197;-51
2021/04/09 05:37:04;;;;;;;7.22;6.50;;;4.30;93.40;;;;;;5102933;27;20195;-51
2021/04/09 05:39:29;;;;;;;9.68;6.28;;;4.10;93.10;;;;;;5100513;27;20248;-61
2021/04/09 05:41:55;;;;;;;9.17;6.60;;;4.40;93.00;;;;;;5103002;27;20183;-53
2021/04/09 05:44:21;;;;;;;9.13;6.60;;;4.20;92.70;;;;;;5107500;27;20248;-52
2021/04/09 05:46:47;;;;;;;7.97;6.63;;;4.40;92.70;;;;;;5100270;27;20449;-53
2021/04/09 05:49:13;;;;;;;17.52;7.25;;;4.50;92.90;;;;;;5102461;27;20207;-54
2021/04/09 05:51:39;;;;;;;9.82;6.40;;;4.30;92.70;;;;;;5125360;27;20191;-54
2021/04/09 05:54:05;;;;;;;7.67;5.90;;;4.40;92.90;;;;;;5107870;27;20226;-59
2021/04/09 05:56:31;;;;;;;12.27;7.68;;;4.60;93.10;;;;;;5107485;27;20464;-60
2021/04/09 05:58:57;;;;;;;7.80;6.80;;;4.30;92.60;;;;;;5121612;27;20211;-54
2021/04/09 06:01:23;;;;;;;10.00;6.50;;;4.50;92.80;;;;;;5110205;27;20464;-52
2021/04/09 06:03:49;;;;;;;11.10;7.40;;;4.80;92.60;;;;;;5109381;27;20434;-51
2021/04/09 06:06:15;;;;;;;11.10;7.03;;;4.60;92.40;;;;;;5129607;27;20215;-51
2021/04/09 06:08:41;;;;;;;7.63;6.50;;;4.70;92.20;;;;;;5105304;28;20628;-52
2021/04/09 06:11:07;;;;;;;10.30;7.07;;;4.80;91.90;;;;;;5103191;27;20183;-51
2021/04/09 06:13:32;;;;;;;9.38;6.70;;;5.20;91.60;;;;;;5099717;27;20812;-53
2021/04/09 06:15:58;;;;;;;8.50;6.70;;;5.40;91.40;;;;;;5109973;27;20203;-52
2021/04/09 06:18:24;;;;;;;8.10;7.03;;;5.60;91.00;;;;;;5107246;28;20938;-52
2021/04/09 06:20:49;;;;;;;11.97;7.97;;;5.60;90.70;;;;;;5109449;27;20645;-51
2021/04/09 06:23:15;;;;;;;10.00;6.43;;;5.60;90.40;;;;;;5101715;28;20198;-50
2021/04/09 06:25:41;;;;;;;10.83;6.70;;;6.00;89.90;;;;;;5101247;27;20727;-51
2021/04/09 06:28:07;;;;;;;7.37;6.63;;;6.30;89.60;;;;;;5111714;27;20719;-51
2021/04/09 06:30:32;;;;;;;7.03;6.23;;;6.40;89.50;;;;;;5107645;27;20246;-50
2021/04/09 06:32:58;;;;;;;8.40;6.97;;;6.60;87.50;;;;;;5103508;27;20182;-50
2021/04/09 06:35:24;;;;;;;9.40;6.27;;;6.60;85.80;;;;;;5102847;27;20186;-51
2021/04/09 06:37:49;;;;;;;7.93;5.90;;;7.20;84.60;;;;;;5100224;27;20461;-51
2021/04/09 06:40:16;;;;;;;8.63;6.33;;;6.80;82.70;;;;;;5106811;28;20196;-52
2021/04/09 06:42:43;;;;;;;8.68;5.47;;;7.60;82.50;;;;;;5108691;27;20195;-52
2021/04/09 06:45:09;;;;;;;6.60;6.00;;;8.20;79.70;;;;;;5099489;27;20190;-51
2021/04/09 06:47:35;;;;;;;6.50;5.20;;;8.20;76.90;;;;;;5105579;27;20192;-52
2021/04/09 06:50:01;;;;;;;7.93;5.50;;;8.70;74.60;;;;;;5109852;27;20207;-51
2021/04/09 06:52:27;;;;;;;6.22;4.97;;;9.30;73.30;;;;;;5111228;27;20444;-49
2021/04/09 06:54:53;;;;;;;12.65;5.95;;;9.30;70.70;;;;;;5099991;27;20180;-50
2021/04/09 06:57:19;;;;;;;5.60;4.85;;;10.10;69.80;;;;;;5099992;27;20212;-51
2021/04/09 06:59:46;;;;;;;5.80;4.60;;;10.60;65.90;;;;;;5104354;27;20253;-50
2021/04/09 07:02:21;;;;;;;6.20;4.88;;;10.80;62.10;;;;;;5100485;28;20814;-49
2021/04/09 07:04:47;;;;;;;6.13;4.82;;;12.30;58.70;;;;;;5106474;27;20277;-49
2021/04/09 07:07:17;;;;;;;6.33;4.80;;;12.50;57.50;;;;;;5102957;28;20270;-52
2021/04/09 07:09:44;;;;;;;4.93;4.50;;;14.10;56.30;;;;;;5103916;27;20202;-50
2021/04/09 07:12:21;;;;;;;6.72;4.72;;;14.60;52.30;;;;;;5112424;27;20183;-52
2021/04/09 07:15:17;;;;;;;4.88;4.38;;;14.70;50.70;;;;;;5111343;27;20527;-52
2021/04/09 07:17:48;;;;;;;6.63;4.65;;;14.60;49.60;;;;;;5106628;27;20271;-51
2021/04/09 07:20:15;;;;;;;5.93;4.32;;;14.80;48.10;;;;;;5108460;27;20203;-52
2021/04/09 07:22:42;;;;;;;4.10;3.60;;;14.40;48.70;;;;;;5109355;27;20183;-51
2021/04/09 07:25:15;;;;;;;4.25;3.85;;;15.00;48.30;;;;;;5108960;27;20194;-52
2021/04/09 07:27:43;;;;;;;4.80;4.22;;;15.50;47.40;;;;;;5106446;28;20222;-51
2021/04/09 07:30:10;;;;;;;5.32;4.82;;;15.30;46.70;;;;;;5109307;27;20206;-51
2021/04/09 07:32:37;;;;;;;6.53;4.15;;;15.70;46.00;;;;;;5102680;28;20228;-51
2021/04/09 07:35:11;;;;;;;5.05;4.40;;;16.00;45.90;;;;;;5108967;27;20232;-52
2021/04/09 07:37:49;;;;;;;8.93;4.88;;;16.80;45.00;;;;;;5103689;27;20206;-52
2021/04/09 07:40:33;;;;;;;6.05;4.30;;;16.40;43.60;;;;;;5102333;28;20203;-53
2021/04/09 07:43:00;;;;;;;4.57;4.18;;;17.10;44.10;;;;;;5104160;28;20187;-51
2021/04/09 07:45:30;;;;;;;4.60;4.20;;;17.70;43.10;;;;;;5104050;27;20249;-51
2021/04/09 07:48:05;;;;;;;7.35;4.50;;;17.10;41.70;;;;;;5107269;27;20439;-52
2021/04/09 07:50:36;;;;;;;7.80;4.50;;;17.20;42.30;;;;;;5097890;28;20964;-53
2021/04/09 07:53:01;;;;;;;4.35;3.80;;;17.50;41.50;;;;;;5099184;27;20185;-52
2021/04/09 07:55:30;;;;;;;6.53;4.57;;;17.00;41.50;;;;;;5101815;27;20190;-54
2021/04/09 07:58:10;;;;;;;4.65;3.58;;;16.50;41.90;;;;;;5105392;27;20286;-54
2021/04/09 08:00:37;;;;;;;5.28;4.78;;;16.10;43.00;;;;;;5099425;28;20203;-53
2021/04/09 08:03:02;;;;;;;4.03;3.67;;;15.50;43.60;;;;;;5098069;27;20239;-54
2021/04/09 08:05:28;;;;;;;5.40;4.20;;;15.10;43.90;;;;;;5103855;27;20183;-52
2021/04/09 08:07:54;;;;;;;4.73;3.87;;;15.40;43.90;;;;;;5111062;27;20470;-52
2021/04/09 08:10:27;;;;;;;4.37;3.97;;;15.30;43.50;;;;;;5105904;27;20674;-52
2021/04/09 08:12:54;;;;;;;5.07;3.90;;;15.80;42.70;;;;;;5095018;27;20661;-52
2021/04/09 08:15:22;;;;;;;4.00;3.70;;;16.00;42.40;;;;;;5124536;27;20544;-54
2021/04/09 08:18:03;;;;;;;4.72;4.22;;;16.20;41.90;;;;;;5102594;28;20206;-53
2021/04/09 08:20:40;;;;;;;4.80;4.40;;;15.90;42.20;;;;;;5102927;27;20520;-53
2021/04/09 08:23:08;;;;;;;4.68;3.83;;;15.70;42.20;;;;;;5098771;27;20606;-52
2021/04/09 08:25:34;;;;;;;5.07;4.22;;;15.70;42.80;;;;;;5097852;27;20319;-52
2021/04/09 08:28:01;;;;;;;5.40;4.00;;;15.50;42.60;;;;;;5096644;27;20232;-51
2021/04/09 08:30:28;;;;;;;5.00;3.65;;;15.30;43.60;;;;;;5106227;27;20681;-50
2021/04/09 08:32:55;;;;;;;4.15;3.55;;;14.90;43.40;;;;;;5099648;28;20194;-52
2021/04/09 08:35:22;;;;;;;4.70;4.20;;;14.70;43.10;;;;;;5108573;27;20179;-52
2021/04/09 08:37:49;;;;;;;4.70;3.53;;;14.80;44.00;;;;;;5099391;27;20570;-51
2021/04/09 08:40:15;;;;;;;5.25;3.85;;;14.50;43.80;;;;;;5100878;27;20214;-52
2021/04/09 08:42:42;;;;;;;4.97;4.05;;;14.80;44.20;;;;;;5105555;27;20182;-50
2021/04/09 08:45:08;;;;;;;4.63;3.70;;;14.70;43.60;;;;;;5099661;28;20207;-51
2021/04/09 08:47:34;;;;;;;4.07;3.73;;;14.80;42.70;;;;;;5107698;27;20214;-51
2021/04/09 08:50:07;;;;;;;6.33;3.70;;;14.50;43.20;;;;;;5104796;27;20451;-52
2021/04/09 08:52:41;;;;;;;4.97;4.30;;;14.30;43.10;;;;;;5098761;28;20445;-53
2021/04/09 08:55:09;;;;;;;6.00;4.45;;;13.60;43.40;;;;;;5103676;27;20668;-57
2021/04/09 08:57:38;;;;;;;4.20;3.80;;;14.20;44.80;;;;;;5102843;28;20199;-53
2021/04/09 09:00:09;;;;;;;3.50;3.20;;;14.30;44.40;;;;;;5105245;27;20199;-53
2021/04/09 09:02:55;;;;;;;4.22;3.85;;;14.20;44.90;;;;;;5106649;27;20214;-53
2021/04/09 09:05:33;;;;;;;4.45;4.05;;;14.30;44.60;;;;;;5100487;28;20269;-53
2021/04/09 09:08:01;;;;;;;3.80;3.45;;;14.10;44.60;;;;;;5097972;28;20227;-51
2021/04/09 09:10:30;;;;;;;4.30;3.90;;;14.20;45.10;;;;;;5102762;28;20277;-52
2021/04/09 09:13:22;;;;;;;4.07;3.58;;;14.70;44.60;;;;;;5099299;28;20671;-52
2021/04/09 09:15:56;;;;;;;5.35;3.70;;;14.60;44.70;;;;;;5105611;28;20670;-52
2021/04/09 09:18:24;;;;;;;4.20;3.80;;;15.00;44.50;;;;;;5096904;28;20194;-54
2021/04/09 09:21:15;;;;;;;5.93;3.88;;;14.90;43.50;;;;;;5094596;28;20671;-51
2021/04/09 09:23:51;;;;;;;9.85;4.10;;;14.90;43.40;;;;;;5103127;28;20183;-54
2021/04/09 09:26:19;;;;;;;4.95;3.50;;;15.00;44.50;;;;;;5096289;28;20589;-53
2021/04/09 09:28:47;;;;;;;7.72;4.68;;;15.50;42.10;;;;;;5108978;28;20481;-52
2021/04/09 09:31:32;;;;;;;3.47;3.15;;;15.10;43.50;;;;;;5100484;28;20175;-51
2021/04/09 09:34:26;;;;;;;4.15;3.75;;;15.00;42.80;;;;;;5101927;28;20281;-52
2021/04/09 09:37:13;;;;;;;4.18;3.20;;;15.10;41.10;;;;;;5107402;28;20208;-50
2021/04/09 09:39:46;;;;;;;3.67;3.33;;;15.20;41.00;;;;;;5094488;28;20244;-51
2021/04/09 09:42:25;;;;;;;5.93;3.45;;;15.30;40.30;;;;;;5101480;28;20183;-52
2021/04/09 09:44:56;;;;;;;5.05;3.72;;;15.40;40.50;;;;;;5095014;28;20259;-52
2021/04/09 09:47:28;;;;;;;3.50;3.20;;;15.40;39.90;;;;;;5100983;28;20640;-51
2021/04/09 09:53:00;;;;;;;3.17;2.80;;;15.50;39.70;;;;;;5114466;28;20278;-51
2021/04/09 09:55:35;;;;;;;7.55;3.20;;;15.50;39.80;;;;;;5101189;28;20261;-51
2021/04/09 09:58:16;;;;;;;3.67;2.97;;;15.60;40.00;;;;;;5108070;28;20216;-51
2021/04/09 10:00:51;;;;;;;3.97;2.95;;;15.80;39.60;;;;;;5093823;28;20221;-51
2021/04/09 10:03:26;;;;;;;6.25;4.03;;;15.90;39.40;;;;;;5098343;28;20179;-50
2021/04/09 10:06:08;;;;;;;3.97;2.90;;;15.60;39.50;;;;;;5103383;28;20183;-50
2021/04/09 10:08:35;;;;;;;3.95;3.28;;;15.90;39.60;;;;;;5102352;28;20180;-49
2021/04/09 10:11:02;;;;;;;5.45;3.33;;;16.20;39.40;;;;;;5100545;28;20304;-50
2021/04/09 10:13:33;;;;;;;4.00;3.05;;;16.10;39.10;;;;;;5107686;27;20171;-51
2021/04/09 10:16:08;;;;;;;3.60;3.25;;;16.40;39.80;;;;;;5107233;27;20244;-51
2021/04/09 10:18:35;;;;;;;4.97;3.53;;;16.10;39.00;;;;;;5110723;27;20195;-51
2021/04/09 10:21:13;;;;;;;4.38;3.17;;;16.30;39.60;;;;;;5099212;27;20591;-51
2021/04/09 10:23:39;;;;;;;4.30;3.70;;;16.50;39.10;;;;;;5097928;28;20987;-54
2021/04/09 10:26:05;;;;;;;5.20;3.28;;;16.70;38.90;;;;;;5102137;27;20190;-51
2021/04/09 10:28:38;;;;;;;6.17;2.90;;;17.30;39.00;;;;;;5122642;27;20201;-53
2021/04/09 10:31:14;;;;;;;4.68;2.90;;;17.20;38.50;;;;;;5112431;27;20202;-53
2021/04/09 10:33:44;;;;;;;3.70;3.17;;;17.40;38.50;;;;;;5131183;27;20181;-53
2021/04/09 10:36:36;;;;;;;4.18;2.70;;;17.30;38.30;;;;;;5109650;28;20747;-53
2021/04/09 10:39:11;;;;;;;5.57;2.90;;;17.20;39.10;;;;;;5099950;27;20219;-53
2021/04/09 10:41:39;;;;;;;3.85;2.90;;;17.20;39.60;;;;;;5101926;28;20179;-53
2021/04/09 10:44:06;;;;;;;9.32;3.85;;;17.30;38.70;;;;;;5110098;27;20558;-52
2021/04/09 10:46:34;;;;;;;3.45;3.15;;;16.90;43.30;;;;;;5109771;27;20550;-53
2021/04/09 10:49:11;;;;;;;4.95;3.30;;;16.80;42.80;;;;;;5105068;27;20210;-53
2021/04/09 10:51:50;;;;;;;3.15;2.60;;;17.20;43.10;;;;;;5104017;27;20183;-53
2021/04/09 10:54:19;;;;;;;3.67;3.22;;;17.00;41.50;;;;;;5115065;27;20332;-52
2021/04/09 10:56:51;;;;;;;5.57;3.90;;;17.40;39.40;;;;;;5106311;27;20199;-52
2021/04/09 10:59:17;;;;;;;3.60;3.03;;;17.40;40.50;;;;;;5100325;27;20197;-53
2021/04/09 11:01:43;;;;;;;3.20;2.90;;;17.20;38.70;;;;;;5101641;27;20230;-53
2021/04/09 11:04:14;;;;;;;7.60;4.20;;;16.80;39.20;;;;;;5103153;27;20248;-53
2021/04/09 11:06:39;;;;;;;5.50;2.70;;;16.80;39.70;;;;;;5107302;27;20194;-51
2021/04/09 11:09:09;;;;;;;3.40;3.10;;;16.50;39.50;;;;;;5104565;27;20590;-52
2021/04/09 11:11:41;;;;;;;3.72;3.05;;;16.80;39.40;;;;;;5109081;27;20667;-52
2021/04/09 11:14:09;;;;;;;4.07;3.08;;;16.50;39.10;;;;;;5099258;27;20225;-51
2021/04/09 11:16:56;;;;;;;3.95;3.10;;;16.80;39.60;;;;;;5110175;27;20212;-51
2021/04/09 11:19:31;;;;;;;4.55;3.55;;;16.80;39.70;;;;;;5107579;27;20692;-52
2021/04/09 11:21:57;;;;;;;3.15;2.85;;;16.50;39.50;;;;;;5099608;28;20224;-52
2021/04/09 11:24:25;;;;;;;3.00;2.70;;;16.60;40.00;;;;;;5112695;27;20179;-52
2021/04/09 11:26:52;;;;;;;3.17;2.67;;;16.50;39.60;;;;;;5101305;27;20191;-51
2021/04/09 11:29:27;;;;;;;3.80;3.22;;;16.70;39.90;;;;;;5102052;27;20549;-52
2021/04/09 11:32:19;;;;;;;7.78;3.20;;;16.50;39.70;;;;;;5107572;27;20186;-52
2021/04/09 11:34:50;;;;;;;3.05;2.58;;;16.40;40.00;;;;;;5101799;27;20539;-53
2021/04/09 11:37:17;;;;;;;9.38;3.00;;;16.40;39.50;;;;;;5102885;28;20575;-52
2021/04/09 11:39:57;;;;;;;2.92;2.60;;;16.30;39.70;;;;;;5095291;27;20207;-52
2021/04/09 11:42:33;;;;;;;3.50;3.00;;;16.40;39.20;;;;;;5105308;27;20579;-50
2021/04/09 11:45:05;;;;;;;4.53;3.05;;;16.70;39.20;;;;;;5110434;27;20175;-51
2021/04/09 11:47:37;;;;;;;3.28;2.33;;;16.60;39.40;;;;;;5096796;27;20526;-52
2021/04/09 11:50:08;;;;;;;8.35;3.88;;;16.60;39.50;;;;;;5105240;28;20260;-52
2021/04/09 11:53:00;;;;;;;4.80;3.53;;;16.50;39.40;;;;;;5101254;27;20189;-52
2021/04/09 11:55:34;;;;;;;3.33;2.95;;;16.70;38.90;;;;;;5109145;27;20175;-55
2021/04/09 11:58:01;;;;;;;4.65;3.35;;;16.60;38.50;;;;;;5099824;27;20304;-53
2021/04/09 12:00:32;;;;;;;3.70;3.00;;;16.70;38.70;;;;;;5105693;27;20254;-53
2021/04/09 12:03:03;;;;;;;5.10;2.60;;;16.70;38.60;;;;;;5096461;28;20183;-53
2021/04/09 12:05:32;;;;;;;7.18;3.17;;;16.90;38.50;;;;;;5099992;28;20843;-50
2021/04/09 12:07:58;;;;;;;3.13;2.80;;;17.50;39.10;;;;;;5117663;27;20696;-51
2021/04/09 12:10:25;;;;;;;3.33;2.50;;;17.50;37.50;;;;;;5099942;28;20199;-50
2021/04/09 12:12:51;;;;;;;3.92;2.70;;;17.80;37.00;;;;;;5101802;27;20225;-50
2021/04/09 12:15:18;;;;;;;3.20;2.27;;;18.00;36.30;;;;;;5109946;27;20218;-53
2021/04/09 12:17:44;;;;;;;3.53;2.30;;;18.10;36.20;;;;;;5106667;27;20474;-52
2021/04/09 12:20:13;;;;;;;5.70;2.60;;;18.40;35.70;;;;;;5102562;27;20668;-51
2021/04/09 12:22:39;;;;;;;3.40;2.22;;;18.30;35.40;;;;;;5099273;27;20444;-51
2021/04/09 12:25:05;;;;;;;4.85;2.63;;;18.30;34.80;;;;;;5098351;27;20634;-51
2021/04/09 12:27:31;;;;;;;4.97;3.47;;;18.40;35.20;;;;;;5101230;27;20547;-51
2021/04/09 12:29:58;;;;;;;3.73;2.57;;;18.50;36.30;;;;;;5098595;28;20286;-51
2021/04/09 12:32:23;;;;;;;2.78;2.55;;;18.80;34.50;;;;;;5106160;27;20187;-52
2021/04/09 12:34:49;;;;;;;3.20;2.40;;;18.80;34.80;;;;;;5100953;27;20276;-53
2021/04/09 12:37:15;;;;;;;5.53;3.43;;;18.80;34.90;;;;;;5099671;27;20202;-52
2021/04/09 12:39:40;;;;;;;3.40;2.50;;;18.50;34.60;;;;;;5097249;27;20526;-50
2021/04/09 12:42:08;;;;;;;3.40;2.80;;;18.50;34.40;;;;;;5100912;28;20210;-51
2021/04/09 12:44:34;;;;;;;2.47;2.00;;;18.80;34.40;;;;;;5104253;27;20183;-50
2021/04/09 12:46:59;;;;;;;4.53;2.17;;;18.80;33.80;;;;;;5126413;27;20243;-50
2021/04/09 12:49:25;;;;;;;2.70;2.33;;;19.10;34.30;;;;;;5099228;28;20207;-51
2021/04/09 12:51:51;;;;;;;5.40;2.60;;;19.00;34.10;;;;;;5094123;27;20199;-52
2021/04/09 12:54:17;;;;;;;2.25;2.00;;;19.00;34.80;;;;;;5098747;27;20227;-52
2021/04/09 12:56:43;;;;;;;4.00;2.42;;;18.80;34.30;;;;;;5128128;27;20210;-51
2021/04/09 12:59:09;;;;;;;2.60;2.40;;;18.80;34.80;;;;;;5102200;28;20205;-51
2021/04/09 13:01:34;;;;;;;4.63;2.53;;;18.50;34.60;;;;;;5099153;28;20393;-51
2021/04/09 13:04:00;;;;;;;2.83;2.30;;;18.50;34.90;;;;;;5107769;27;20204;-55